createdAt,value
2019-04-01T00:02:18.168Z,13.55
2019-04-01T00:04:47.311Z,14.05
2019-04-01T00:07:16.458Z,14.30
2019-04-01T00:09:45.631Z,14.15
2019-04-01T00:12:14.775Z,13.32
2019-04-01T00:14:43.921Z,13.10
2019-04-01T00:17:13.078Z,13.03
2019-04-01T00:19:42.216Z,13.03
2019-04-01T00:22:11.404Z,13.50
2019-04-01T00:24:40.535Z,14.10
2019-04-01T00:27:09.679Z,13.55
2019-04-01T00:29:38.828Z,13.50
2019-04-01T00:32:07.976Z,12.65
2019-04-01T00:34:37.128Z,13.00
2019-04-01T00:37:06.274Z,12.88
2019-04-01T00:39:35.422Z,13.08
2019-04-01T00:42:11.906Z,12.15
2019-04-01T00:44:41.045Z,12.78
2019-04-01T00:47:10.184Z,12.50
2019-04-01T00:49:39.330Z,12.15
2019-04-01T00:52:08.483Z,11.63
2019-04-01T00:54:37.621Z,12.73
2019-04-01T00:57:06.856Z,12.68
2019-04-01T00:59:35.992Z,12.47
2019-04-01T01:02:05.161Z,12.20
2019-04-01T01:04:34.293Z,12.05
2019-04-01T01:07:03.436Z,11.97
2019-04-01T01:09:32.617Z,11.18
2019-04-01T01:12:01.768Z,12.37
2019-04-01T01:14:30.973Z,11.97
2019-04-01T01:17:00.608Z,12.18
2019-04-01T01:19:29.756Z,10.95
2019-04-01T01:21:58.897Z,11.48
2019-04-01T01:24:28.049Z,11.55
2019-04-01T01:26:57.507Z,11.50
2019-04-01T01:29:27.127Z,11.90
2019-04-01T01:31:56.278Z,11.55
2019-04-01T01:34:25.460Z,11.68
2019-04-01T01:36:54.600Z,11.25
2019-04-01T01:39:23.745Z,10.93
2019-04-01T01:41:52.932Z,11.03
2019-04-01T01:44:22.082Z,11.03
2019-04-01T01:46:51.289Z,11.35
2019-04-01T01:49:20.521Z,11.43
2019-04-01T01:51:49.648Z,11.28
2019-04-01T01:54:18.785Z,11.30
2019-04-01T01:56:47.922Z,11.10
2019-04-01T01:59:17.066Z,11.22
2019-04-01T02:01:46.221Z,11.60
2019-04-01T02:04:15.345Z,10.32
2019-04-01T02:06:44.478Z,11.12
2019-04-01T02:09:13.652Z,11.22
2019-04-01T02:11:42.791Z,10.28
2019-04-01T02:14:11.934Z,10.63
2019-04-01T02:16:41.113Z,10.25
2019-04-01T02:19:10.241Z,11.10
2019-04-01T02:21:39.391Z,11.00
2019-04-01T02:24:08.541Z,10.95
2019-04-01T02:26:37.682Z,10.98
2019-04-01T02:29:06.825Z,10.32
2019-04-01T02:31:35.969Z,10.63
2019-04-01T02:34:05.106Z,10.85
2019-04-01T02:36:34.243Z,10.48
2019-04-01T02:39:05.102Z,9.93
2019-04-01T02:41:34.249Z,9.58
2019-04-01T02:44:03.393Z,10.32
2019-04-01T02:46:32.548Z,10.23
2019-04-01T02:49:01.729Z,10.38
2019-04-01T02:51:30.864Z,10.08
2019-04-01T02:54:00.003Z,10.08
2019-04-01T02:56:29.152Z,9.45
2019-04-01T02:58:58.842Z,10.63
2019-04-01T03:01:27.970Z,9.55
2019-04-01T03:03:57.109Z,10.38
2019-04-01T03:06:26.273Z,9.88
2019-04-01T03:08:55.682Z,10.00
2019-04-01T03:11:24.835Z,9.65
2019-04-01T03:13:54.199Z,9.93
2019-04-01T03:16:23.327Z,10.20
2019-04-01T03:18:52.459Z,10.08
2019-04-01T03:21:21.613Z,9.20
2019-04-01T03:23:50.745Z,9.33
2019-04-01T03:26:19.877Z,10.15
2019-04-01T03:28:49.045Z,9.53
2019-04-01T03:31:18.167Z,9.28
2019-04-01T03:33:47.289Z,9.73
2019-04-01T03:36:16.413Z,9.65
2019-04-01T03:38:45.588Z,9.20
2019-04-01T03:41:14.718Z,9.23
2019-04-01T03:43:43.861Z,9.50
2019-04-01T03:46:12.999Z,9.58
2019-04-01T03:48:42.147Z,9.90
2019-04-01T03:51:11.294Z,9.90
2019-04-01T03:53:40.425Z,9.28
2019-04-01T03:56:09.576Z,9.90
2019-04-01T03:58:38.771Z,10.05
2019-04-01T04:01:07.915Z,8.88
2019-04-01T04:03:37.062Z,10.40
2019-04-01T04:06:06.211Z,9.73
2019-04-01T04:08:35.354Z,9.88
2019-04-01T04:11:04.501Z,9.13
2019-04-01T04:13:33.809Z,9.35
2019-04-01T04:16:02.947Z,9.63
2019-04-01T04:18:32.111Z,9.33
2019-04-01T04:21:01.254Z,9.73
2019-04-01T04:23:30.394Z,9.55
2019-04-01T04:25:59.539Z,9.73
2019-04-01T04:28:28.662Z,9.55
2019-04-01T04:30:57.805Z,9.60
2019-04-01T04:33:26.936Z,9.83
2019-04-01T04:35:56.086Z,9.55
2019-04-01T04:38:25.234Z,8.80
2019-04-01T04:40:54.404Z,9.53
2019-04-01T04:43:23.715Z,9.50
2019-04-01T04:45:52.961Z,9.13
2019-04-01T04:48:22.166Z,9.73
2019-04-01T04:50:51.299Z,9.83
2019-04-01T04:53:20.447Z,9.85
2019-04-01T04:55:49.582Z,9.30
2019-04-01T04:58:18.723Z,9.18
2019-04-01T05:00:47.861Z,9.30
2019-04-01T05:03:17.402Z,9.10
2019-04-01T05:05:46.613Z,9.45
2019-04-01T05:08:15.795Z,10.65
2019-04-01T05:10:44.948Z,9.80
2019-04-01T05:13:14.066Z,9.05
2019-04-01T05:15:43.369Z,10.65
2019-04-01T05:18:12.653Z,9.50
2019-04-01T05:20:41.876Z,10.25
2019-04-01T05:23:11.510Z,9.58
2019-04-01T05:25:40.724Z,9.20
2019-04-01T05:28:09.898Z,9.13
2019-04-01T05:30:39.157Z,10.35
2019-04-01T05:33:08.384Z,10.60
2019-04-01T05:35:37.558Z,10.30
2019-04-01T05:38:07.417Z,9.35
2019-04-01T05:40:36.559Z,9.18
2019-04-01T05:43:06.098Z,15.18
2019-04-01T05:45:35.235Z,15.90
2019-04-01T05:48:04.563Z,13.88
2019-04-01T05:50:33.706Z,13.80
2019-04-01T05:53:02.898Z,13.68
2019-04-01T05:55:32.317Z,13.45
2019-04-01T05:58:01.713Z,12.73
2019-04-01T06:00:35.465Z,14.10
2019-04-01T06:03:04.675Z,12.82
2019-04-01T06:05:33.833Z,11.55
2019-04-01T06:08:03.361Z,12.05
2019-04-01T06:10:32.506Z,10.20
2019-04-01T06:13:01.702Z,10.70
2019-04-01T06:15:30.999Z,11.20
2019-04-01T06:18:00.162Z,11.50
2019-04-01T06:20:29.378Z,10.70
2019-04-01T06:22:58.526Z,10.48
2019-04-01T06:25:27.692Z,11.35
2019-04-01T06:27:56.831Z,10.88
2019-04-01T06:30:25.971Z,11.00
2019-04-01T06:32:55.113Z,11.30
2019-04-01T06:35:24.259Z,11.18
2019-04-01T06:37:53.415Z,10.78
2019-04-01T06:40:22.548Z,9.78
2019-04-01T06:42:51.678Z,8.53
2019-04-01T06:45:21.064Z,10.48
2019-04-01T06:47:50.203Z,9.03
2019-04-01T06:50:19.344Z,9.55
2019-04-01T06:52:48.491Z,9.63
2019-04-01T06:55:17.700Z,9.43
2019-04-01T06:57:46.886Z,9.58
2019-04-01T07:00:16.030Z,9.58
2019-04-01T07:02:45.166Z,9.85
2019-04-01T07:05:14.359Z,10.48
2019-04-01T07:07:43.502Z,9.75
2019-04-01T07:10:12.647Z,9.58
2019-04-01T07:12:42.186Z,9.30
2019-04-01T07:15:11.332Z,9.30
2019-04-01T07:17:40.478Z,9.63
2019-04-01T07:20:09.619Z,9.45
2019-04-01T07:22:38.763Z,9.03
2019-04-01T07:25:07.896Z,8.70
2019-04-01T07:27:37.053Z,9.20
2019-04-01T07:30:06.859Z,8.93
2019-04-01T07:32:36.008Z,8.65
2019-04-01T07:35:06.486Z,9.70
2019-04-01T07:37:35.677Z,8.43
2019-04-01T07:40:06.256Z,9.63
2019-04-01T07:42:35.399Z,8.35
2019-04-01T07:45:07.047Z,9.20
2019-04-01T07:47:36.195Z,9.65
2019-04-01T07:50:06.262Z,9.28
2019-04-01T07:52:35.403Z,8.73
2019-04-01T07:55:07.035Z,9.68
2019-04-01T07:57:36.187Z,8.80
2019-04-01T08:00:07.058Z,8.83
2019-04-01T08:02:36.233Z,8.58
2019-04-01T08:05:05.930Z,8.93
2019-04-01T08:07:35.081Z,9.25
2019-04-01T08:10:06.721Z,9.45
2019-04-01T08:12:35.877Z,8.78
2019-04-01T08:15:07.478Z,9.00
2019-04-01T08:17:36.680Z,9.45
2019-04-01T08:20:06.424Z,9.73
2019-04-01T08:22:35.565Z,9.10
2019-04-01T08:25:08.635Z,8.90
2019-04-01T08:27:37.803Z,9.28
2019-04-01T08:30:10.115Z,9.20
2019-04-01T08:32:39.259Z,9.05
2019-04-01T08:35:10.126Z,8.50
2019-04-01T08:37:40.545Z,8.95
2019-04-01T08:40:10.333Z,9.25
2019-04-01T08:42:39.480Z,8.35
2019-04-01T08:45:08.909Z,9.00
2019-04-01T08:47:38.046Z,8.13
2019-04-01T08:50:07.620Z,8.78
2019-04-01T08:52:37.154Z,8.25
2019-04-01T08:55:07.524Z,9.70
2019-04-01T08:57:37.014Z,8.28
2019-04-01T09:00:07.816Z,8.33
2019-04-01T09:02:36.954Z,8.45
2019-04-01T09:05:06.103Z,8.33
2019-04-01T09:07:35.406Z,8.10
2019-04-01T09:10:05.905Z,8.03
2019-04-01T09:12:35.208Z,8.20
2019-04-01T09:15:04.532Z,8.30
2019-04-01T09:17:33.673Z,7.80
2019-04-01T09:20:02.997Z,7.72
2019-04-01T09:22:32.160Z,8.13
2019-04-01T09:25:01.301Z,7.45
2019-04-01T09:27:30.551Z,8.08
2019-04-01T09:29:59.692Z,7.95
2019-04-01T09:32:28.955Z,8.05
2019-04-01T09:34:58.153Z,8.10
2019-04-01T09:37:27.289Z,7.87
2019-04-01T09:39:56.444Z,7.70
2019-04-01T09:42:25.595Z,8.10
2019-04-01T09:44:54.742Z,7.58
2019-04-01T09:47:23.885Z,7.67
2019-04-01T09:49:53.069Z,7.65
2019-04-01T09:52:22.280Z,7.17
2019-04-01T09:54:51.414Z,7.42
2019-04-01T09:57:20.543Z,7.62
2019-04-01T09:59:49.727Z,7.28
2019-04-01T10:02:31.100Z,7.40
2019-04-01T10:04:49.727Z,7.75
2019-04-01T10:07:18.887Z,7.15
2019-04-01T10:09:48.026Z,7.40
2019-04-01T10:12:17.166Z,7.10
2019-04-01T10:14:46.369Z,7.10
2019-04-01T10:17:15.480Z,6.42
2019-04-01T10:19:44.723Z,7.10
2019-04-01T10:22:13.860Z,6.87
2019-04-01T10:24:44.639Z,6.60
2019-04-01T10:27:13.780Z,6.90
2019-04-01T10:29:42.926Z,7.17
2019-04-01T10:32:12.073Z,6.17
2019-04-01T10:34:41.339Z,6.55
2019-04-01T10:37:10.655Z,6.03
2019-04-01T10:39:39.976Z,6.80
2019-04-01T10:42:09.111Z,6.58
2019-04-01T10:44:38.262Z,5.95
2019-04-01T10:47:07.408Z,6.12
2019-04-01T10:49:36.648Z,5.92
2019-04-01T10:52:05.844Z,6.15
2019-04-01T10:54:34.993Z,6.40
2019-04-01T10:57:04.150Z,5.90
2019-04-01T10:59:33.357Z,6.28
2019-04-01T11:02:02.587Z,5.58
2019-04-01T11:04:31.967Z,5.28
2019-04-01T11:07:01.104Z,5.50
2019-04-01T11:09:38.317Z,6.08
2019-04-01T11:12:01.113Z,5.67
2019-04-01T11:14:30.240Z,5.62
2019-04-01T11:16:59.413Z,6.10
2019-04-01T11:19:28.565Z,5.70
2019-04-01T11:21:57.769Z,5.37
2019-04-01T11:24:26.956Z,5.80
2019-04-01T11:26:56.138Z,5.15
2019-04-01T11:29:25.817Z,5.72
2019-04-01T11:31:55.371Z,5.65
2019-04-01T11:34:24.702Z,5.30
2019-04-01T11:36:54.419Z,5.42
2019-04-01T11:39:23.724Z,5.28
2019-04-01T11:41:53.066Z,5.03
2019-04-01T11:44:22.696Z,5.00
2019-04-01T11:46:53.403Z,4.72
2019-04-01T11:49:23.213Z,5.00
2019-04-01T11:51:52.890Z,5.22
2019-04-01T11:54:22.048Z,5.50
2019-04-01T11:56:51.333Z,5.28
2019-04-01T11:59:20.673Z,5.17
2019-04-01T12:01:49.949Z,5.08
2019-04-01T12:04:19.205Z,5.28
2019-04-01T12:06:48.382Z,4.67
2019-04-01T12:09:17.601Z,4.67
2019-04-01T12:11:46.772Z,4.80
2019-04-01T12:14:15.922Z,5.05
2019-04-01T12:16:45.117Z,4.85
2019-04-01T12:19:14.297Z,4.55
2019-04-01T12:21:44.362Z,4.90
2019-04-01T12:24:13.544Z,4.67
2019-04-01T12:26:42.705Z,4.92
2019-04-01T12:29:12.557Z,4.80
2019-04-01T12:31:42.814Z,4.70
2019-04-01T12:34:11.996Z,4.33
2019-04-01T12:36:41.158Z,4.47
2019-04-01T12:39:10.299Z,4.83
2019-04-01T12:41:39.509Z,4.90
2019-04-01T12:44:08.722Z,4.72
2019-04-01T12:46:37.899Z,4.35
2019-04-01T12:49:07.039Z,4.37
2019-04-01T12:51:36.380Z,4.50
2019-04-01T12:54:05.561Z,4.12
2019-04-01T12:56:34.785Z,4.40
2019-04-01T12:59:03.973Z,4.10
2019-04-01T13:01:33.237Z,4.53
2019-04-01T13:04:04.235Z,4.47
2019-04-01T13:06:33.358Z,4.15
2019-04-01T13:09:02.538Z,4.45
2019-04-01T13:11:31.768Z,4.55
2019-04-01T13:14:00.978Z,4.28
2019-04-01T13:16:30.162Z,4.47
2019-04-01T13:18:59.385Z,4.00
2019-04-01T13:21:28.530Z,4.03
2019-04-01T13:23:57.661Z,4.28
2019-04-01T13:26:27.002Z,4.10
2019-04-01T13:28:56.158Z,3.72
2019-04-01T13:31:25.337Z,3.80
2019-04-01T13:33:54.988Z,3.90
2019-04-01T13:36:24.187Z,3.70
2019-04-01T13:38:53.327Z,4.30
2019-04-01T13:41:25.083Z,3.85
2019-04-01T13:43:53.598Z,4.60
2019-04-01T13:46:22.740Z,3.92
2019-04-01T13:48:58.007Z,3.40
2019-04-01T13:51:22.829Z,4.03
2019-04-01T13:53:52.011Z,3.98
2019-04-01T13:56:21.198Z,3.80
2019-04-01T13:58:50.395Z,4.17
2019-04-01T14:01:19.543Z,3.87
2019-04-01T14:03:48.686Z,4.00
2019-04-01T14:06:17.872Z,3.85
2019-04-01T14:08:47.014Z,4.00
2019-04-01T14:11:16.190Z,3.55
2019-04-01T14:13:45.371Z,4.03
2019-04-01T14:16:14.622Z,3.85
2019-04-01T14:18:43.923Z,3.75
2019-04-01T14:21:17.436Z,3.60
2019-04-01T14:23:44.049Z,3.83
2019-04-01T14:26:13.147Z,3.70
2019-04-01T14:28:42.333Z,3.98
2019-04-01T14:31:11.523Z,3.50
2019-04-01T14:33:40.678Z,3.55
2019-04-01T14:36:09.906Z,3.65
2019-04-01T14:38:39.081Z,3.65
2019-04-01T14:41:08.226Z,3.65
2019-04-01T14:43:37.427Z,3.50
2019-04-01T14:46:06.623Z,3.50
2019-04-01T14:48:35.807Z,3.67
2019-04-01T14:51:05.040Z,3.40
2019-04-01T14:53:34.218Z,3.35
2019-04-01T14:56:03.504Z,3.15
2019-04-01T14:58:32.689Z,3.08
2019-04-01T15:01:01.872Z,3.20
2019-04-01T15:03:31.062Z,3.22
2019-04-01T15:06:00.212Z,3.50
2019-04-01T15:08:29.353Z,3.33
2019-04-01T15:10:58.503Z,3.42
2019-04-01T15:13:27.679Z,3.55
2019-04-01T15:15:56.997Z,3.17
2019-04-01T15:18:26.146Z,2.90
2019-04-01T15:20:55.332Z,3.30
2019-04-01T15:23:25.270Z,3.22
2019-04-01T15:25:55.626Z,2.80
2019-04-01T15:28:24.812Z,2.95
2019-04-01T15:30:53.951Z,3.00
2019-04-01T15:33:24.901Z,2.92
2019-04-01T15:35:54.073Z,3.10
2019-04-01T15:38:23.208Z,3.22
2019-04-01T15:40:52.396Z,2.90
2019-04-01T15:43:21.691Z,3.42
2019-04-01T15:45:51.060Z,2.90
2019-04-01T15:48:20.214Z,3.08
2019-04-01T15:50:49.415Z,2.98
2019-04-01T15:53:18.991Z,3.00
2019-04-01T15:55:48.182Z,2.70
2019-04-01T15:58:17.331Z,3.00
2019-04-01T16:00:46.504Z,2.98
2019-04-01T16:03:15.644Z,2.20
2019-04-01T16:05:44.807Z,2.08
2019-04-01T16:08:14.187Z,2.10
2019-04-01T16:10:43.604Z,2.70
2019-04-01T16:13:14.104Z,2.10
2019-04-01T16:15:43.380Z,1.70
2019-04-01T16:18:12.535Z,2.22
2019-04-01T16:20:41.750Z,2.17
2019-04-01T16:23:10.957Z,2.20
2019-04-01T16:25:40.135Z,2.30
2019-04-01T16:28:09.294Z,2.00
2019-04-01T16:30:38.663Z,2.10
2019-04-01T16:33:07.823Z,2.20
2019-04-01T16:35:37.051Z,1.70
2019-04-01T16:38:25.667Z,1.25
2019-04-01T16:40:54.828Z,2.00
2019-04-01T16:43:24.016Z,1.90
2019-04-01T16:45:55.902Z,2.20
2019-04-01T16:48:24.093Z,2.70
2019-04-01T16:50:53.279Z,3.02
2019-04-01T16:53:22.448Z,3.08
2019-04-01T16:55:51.595Z,3.47
2019-04-01T16:58:20.775Z,3.47
2019-04-01T17:00:49.949Z,4.42
2019-04-01T17:03:19.640Z,6.17
2019-04-01T17:05:49.490Z,6.47
2019-04-01T17:08:18.700Z,5.80
2019-04-01T17:10:47.886Z,6.33
2019-04-01T17:13:17.144Z,6.60
2019-04-01T17:15:46.327Z,7.03
2019-04-01T17:18:15.504Z,6.67
2019-04-01T17:20:44.683Z,5.85
2019-04-01T17:23:13.931Z,6.15
2019-04-01T17:25:43.112Z,6.50
2019-04-01T17:28:12.315Z,6.17
2019-04-01T17:30:41.498Z,5.50
2019-04-01T17:33:10.668Z,5.58
2019-04-01T17:35:39.848Z,4.95
2019-04-01T17:38:08.986Z,5.17
2019-04-01T17:40:38.132Z,4.67
2019-04-01T17:43:09.509Z,4.72
2019-04-01T17:45:40.339Z,4.92
2019-04-01T17:48:09.589Z,4.55
2019-04-01T17:50:38.772Z,4.90
2019-04-01T17:53:08.080Z,4.92
2019-04-01T17:55:37.257Z,4.70
2019-04-01T17:58:06.709Z,4.45
2019-04-01T18:00:37.559Z,4.45
2019-04-01T18:03:09.383Z,4.40
2019-04-01T18:05:37.598Z,4.28
2019-04-01T18:08:06.781Z,4.42
2019-04-01T18:10:36.138Z,4.08
2019-04-01T18:13:05.323Z,4.90
2019-04-01T18:15:34.506Z,4.30
2019-04-01T18:18:03.652Z,4.42
2019-04-01T18:20:33.479Z,4.35
2019-04-01T18:23:03.640Z,4.30
2019-04-01T18:25:33.296Z,4.45
2019-04-01T18:28:02.484Z,4.50
2019-04-01T18:30:31.706Z,4.50
2019-04-01T18:33:00.893Z,5.03
2019-04-01T18:35:30.042Z,4.70
2019-04-01T18:37:59.270Z,5.03
2019-04-01T18:40:33.085Z,5.05
2019-04-01T18:43:00.168Z,5.47
2019-04-01T18:45:29.785Z,5.37
2019-04-01T18:47:58.981Z,5.83
2019-04-01T18:50:28.173Z,4.92
2019-04-01T18:52:57.353Z,5.05
2019-04-01T18:55:26.542Z,5.35
2019-04-01T18:57:56.536Z,4.90
2019-04-01T19:00:26.264Z,5.10
2019-04-01T19:02:55.819Z,4.85
2019-04-01T19:05:25.264Z,5.75
2019-04-01T19:07:54.740Z,5.30
2019-04-01T19:10:23.887Z,5.22
2019-04-01T19:13:05.139Z,5.20
2019-04-01T19:15:24.796Z,5.35
2019-04-01T19:17:54.975Z,5.40
2019-04-01T19:20:24.125Z,5.50
2019-04-01T19:22:53.468Z,5.47
2019-04-01T19:25:23.312Z,5.42
2019-04-01T19:27:52.714Z,5.70
2019-04-01T19:30:21.862Z,5.00
2019-04-01T19:32:51.000Z,5.22
2019-04-01T19:35:20.184Z,5.22
2019-04-01T19:37:49.374Z,5.25
2019-04-01T19:40:20.566Z,4.92
2019-04-01T19:42:49.472Z,4.92
2019-04-01T19:45:19.144Z,5.45
2019-04-01T19:47:48.285Z,4.83
2019-04-01T19:50:18.559Z,5.22
2019-04-01T19:52:47.957Z,5.37
2019-04-01T19:55:17.137Z,4.80
2019-04-01T19:57:46.452Z,5.40
2019-04-01T20:00:27.188Z,4.55
2019-04-01T20:02:46.822Z,4.53
2019-04-01T20:05:16.006Z,4.90
2019-04-01T20:07:45.296Z,4.37
2019-04-01T20:10:14.480Z,5.30
2019-04-01T20:12:43.612Z,4.95
2019-04-01T20:15:13.116Z,4.92
2019-04-01T20:17:42.258Z,5.28
2019-04-01T20:20:14.388Z,5.50
2019-04-01T20:22:42.379Z,5.65
2019-04-01T20:25:11.564Z,5.28
2019-04-01T20:27:40.693Z,5.05
2019-04-01T20:30:10.549Z,5.10
2019-04-01T20:32:39.734Z,5.40
2019-04-01T20:35:22.255Z,5.05
2019-04-01T20:37:39.923Z,4.90
2019-04-01T20:40:09.225Z,5.35
2019-04-01T20:42:38.372Z,5.42
2019-04-01T20:45:10.936Z,5.35
2019-04-01T20:47:39.409Z,5.28
2019-04-01T20:50:10.433Z,4.47
2019-04-01T20:52:39.645Z,5.22
2019-04-01T20:55:08.790Z,5.40
2019-04-01T20:57:37.918Z,5.58
2019-04-01T21:00:09.548Z,4.90
2019-04-01T21:02:39.401Z,5.15
2019-04-01T21:05:09.291Z,5.30
2019-04-01T21:07:38.590Z,4.95
2019-04-01T21:10:07.973Z,5.15
2019-04-01T21:12:37.727Z,5.00
2019-04-01T21:15:07.759Z,4.60
2019-04-01T21:17:36.899Z,5.67
2019-04-01T21:20:09.423Z,5.55
2019-04-01T21:22:38.553Z,5.42
2019-04-01T21:25:07.839Z,5.50
2019-04-01T21:27:37.189Z,5.70
2019-04-01T21:30:10.658Z,5.15
2019-04-01T21:32:39.853Z,5.90
2019-04-01T21:35:09.605Z,5.70
2019-04-01T21:37:39.148Z,4.72
2019-04-01T21:40:08.335Z,5.62
2019-04-01T21:42:37.768Z,5.28
2019-04-01T21:45:07.980Z,5.40
2019-04-01T21:47:37.121Z,5.28
2019-04-01T21:50:07.112Z,5.30
2019-04-01T21:52:36.273Z,4.92
2019-04-01T21:55:08.206Z,5.50
2019-04-01T21:57:37.345Z,5.58
2019-04-01T22:00:18.055Z,5.62
2019-04-01T22:02:46.994Z,5.53
2019-04-01T22:05:16.129Z,5.65
2019-04-01T22:07:45.349Z,5.40
2019-04-01T22:10:14.528Z,5.78
2019-04-01T22:12:43.744Z,5.60
2019-04-01T22:15:12.925Z,5.67
2019-04-01T22:17:42.103Z,5.17
2019-04-01T22:20:11.247Z,5.90
2019-04-01T22:22:40.391Z,5.62
2019-04-01T22:25:09.571Z,5.75
2019-04-01T22:27:38.745Z,5.53
2019-04-01T22:30:08.198Z,6.20
2019-04-01T22:32:37.332Z,5.60
2019-04-01T22:35:08.493Z,5.97
2019-04-01T22:37:38.106Z,5.72
2019-04-01T22:40:07.890Z,6.30
2019-04-01T22:42:37.040Z,5.75
2019-04-01T22:45:08.316Z,5.55
2019-04-01T22:47:37.458Z,5.70
2019-04-01T22:50:07.467Z,6.10
2019-04-01T22:52:36.649Z,5.75
2019-04-01T22:55:07.061Z,6.53
2019-04-01T22:57:36.206Z,6.60
2019-04-01T23:00:06.323Z,6.65
2019-04-01T23:02:35.502Z,7.03
2019-04-01T23:05:06.113Z,6.80
2019-04-01T23:07:35.250Z,7.20
2019-04-01T23:10:06.877Z,8.15
2019-04-01T23:12:36.280Z,8.18
2019-04-01T23:15:07.557Z,8.88
2019-04-01T23:17:38.300Z,8.50
2019-04-01T23:20:07.567Z,8.43
2019-04-01T23:22:36.788Z,8.23
2019-04-01T23:25:07.266Z,8.25
2019-04-01T23:27:36.408Z,9.03
2019-04-01T23:30:09.334Z,8.25
2019-04-01T23:32:41.687Z,8.65
2019-04-01T23:35:09.673Z,8.48
2019-04-01T23:37:38.882Z,8.48
2019-04-01T23:40:08.625Z,8.45
2019-04-01T23:42:38.215Z,8.50
2019-04-01T23:45:07.795Z,8.48
2019-04-01T23:47:36.958Z,8.65
2019-04-01T23:50:09.078Z,8.48
2019-04-01T23:52:39.034Z,8.58
2019-04-01T23:55:08.387Z,8.38
2019-04-01T23:57:37.560Z,8.10
